Pagrindinis puslapis
METAR-TAF:

METAR-TAF

Oro uostai :

Stambulas Atatiurkas, Turkija

platuma: 40-58N, ilguma: 028-49E, Aukštis: 48 m

Dabartinis oras

Ataskaita buvo paskelbta 25 minutes, ne 18:20 UTC
Vėjas 5 kt iš Rytų/Pietryčių
Temperatūra 10°C
Drėgmė 76%
Slėgis 1022 hPa
Matomumas 10 km arba daugiau
nėra debesų žemiau 1500 m ir nėra kamuolinių lietaus debesų

METAR: LTBA 121820Z 12005KT CAVOK 10/06 Q1022 BECMG 21012KT RMK RWY23 12005KT

Laikas: 21:45 (18:45 UTC)

Prognozė

Ataskaita buvo paskelbta 2 valandos ir 5 minutes, ne 16:40 UTC
Prognozė galioja nuo 12 metu 18 UTC su 13 metu 24 UTC
Vėjas 12 kt iš Pietų/Pietvakarių
Matomumas 10 km arba daugiau
nėra debesų žemiau 1500 m ir nėra kamuolinių lietaus debesų

TAF: LTBA 121640Z 1218/1324 21012KT CAVOK

Orai ataskaitas ir orų prognozės (METAR, TAF).

turimą stotys yra geltonos ir raudonos taškus žemėlapyje.

Perkelti pele per norėdami pamatyti stoties vardą.

Tada spustelėkite, norėdami matyti oro stebėjimo ir prognozės.

Norėdami pakeisti žemėlapį: spustelėkite ant žalios mygtukų su juodo kryžiaus žemyn,; žalią mygtuką su brūkšneliu, jei norite nutolinti; arba žalių rodyklių gretimoms žemėlapius.


METAR-TAF: